PER weather

Perth International Airport
Perth, Western Australia, Australia

Public forecast

Using degrees Celsius for public forecast. Weather courtesy of forecast.io.

METAR (pilot weather report)

Retrieved 2017/08/20 12:30 UTC (30 minutes ago):

YPPH 201230Z 11002KT 9999 FEW040 08/07 Q1023 NOSIG

TAF (pilot weather forecast)

Retrieved 2017/08/20 12:36 UTC (24 minutes ago):

TAF TAF YPPH 201110Z 2012/2118 17008KT CAVOK FM201600 04005KT 9999 -DZ BKN025 FM210000 36005KT 9999 BKN040 FM210500 26008KT 9999 -SHRA SCT025 FM211400 06005KT 9999 BKN045 INTER 2106/2110 4000 SHRA BKN015